Time;durP1;ratioP1;P1;durP2;ratioP2;P2;SDS_P1;SDS_P2;PMS_P1;PMS_P2;Temp;Humidity;BMP_temperature;BMP_pressure;BME280_temperature;BME280_humidity;BME280_pressure;Samples;Min_cycle;Max_cycle;Signal;HPM_P1;HPM_P2
2023/08/16 00:01:10;;;;;;;16.65;7.95;;;;;;;22.10;74.81;100574.78;10503281;28;20399;-59
2023/08/16 00:06:13;;;;;;;20.08;6.10;;;;;;;22.01;75.19;100570.78;10498138;28;20040;-59
2023/08/16 00:11:15;;;;;;;16.60;6.60;;;;;;;21.97;75.51;100565.78;10503013;28;20048;-59
2023/08/16 00:16:16;;;;;;;25.00;6.55;;;;;;;21.88;75.53;100566.44;10499156;28;20527;-59
2023/08/16 00:21:18;;;;;;;25.30;6.75;;;;;;;21.92;75.59;100579.41;10504276;28;20040;-59
2023/08/16 00:26:20;;;;;;;45.63;8.52;;;;;;;21.88;75.53;100572.75;10503979;28;20489;-59
2023/08/16 00:31:22;;;;;;;35.20;9.48;;;;;;;21.78;75.67;100569.81;10498594;28;20104;-59
2023/08/16 00:36:24;;;;;;;29.45;9.30;;;;;;;21.76;76.23;100572.81;10501739;28;20057;-59
2023/08/16 00:41:25;;;;;;;47.50;11.15;;;;;;;21.68;76.15;100564.16;10502296;27;20040;-59
2023/08/16 00:46:30;;;;;;;64.80;11.63;;;;;;;21.73;76.34;100553.31;10506267;28;20040;-59
2023/08/16 00:51:32;;;;;;;55.08;11.20;;;;;;;21.90;75.91;100554.19;10508250;28;20044;-59
2023/08/16 00:56:35;;;;;;;43.47;10.02;;;;;;;22.03;75.59;100555.75;10503855;28;20040;-58
2023/08/16 01:01:40;;;;;;;41.28;10.02;;;;;;;22.11;75.74;100560.84;10508632;28;20049;-59
2023/08/16 01:06:41;;;;;;;69.55;11.30;;;;;;;22.08;76.03;100555.88;10503826;28;20040;-60
2023/08/16 01:11:51;;;;;;;132.85;13.05;;;;;;;22.15;75.66;100555.69;10504403;28;20128;-59
2023/08/16 01:16:53;;;;;;;137.88;13.45;;;;;;;22.20;75.80;100552.22;10500351;28;20056;-59
2023/08/16 01:22:08;;;;;;;195.52;13.40;;;;;;;22.16;75.69;100551.91;10506541;28;20040;-60
2023/08/16 01:27:11;;;;;;;85.72;12.95;;;;;;;22.20;75.70;100557.72;10505657;28;20399;-59
2023/08/16 01:32:12;;;;;;;178.77;15.27;;;;;;;22.26;75.91;100560.31;10504533;28;20055;-59
2023/08/16 01:37:14;;;;;;;127.20;13.48;;;;;;;22.26;75.65;100560.31;10508411;28;20043;-60
2023/08/16 01:42:17;;;;;;;91.38;13.85;;;;;;;22.31;75.97;100560.38;10501883;28;20032;-60
2023/08/16 01:47:19;;;;;;;117.78;13.88;;;;;;;22.37;75.90;100558.56;10504198;28;20048;-60
2023/08/16 01:52:21;;;;;;;127.15;13.98;;;;;;;22.43;76.00;100565.75;10500951;28;20048;-59
2023/08/16 01:57:22;;;;;;;80.32;12.93;;;;;;;22.39;76.00;100564.59;10503965;28;20191;-59
2023/08/16 02:02:24;;;;;;;112.63;12.68;;;;;;;22.38;76.20;100561.03;10501562;28;20045;-59
2023/08/16 02:07:26;;;;;;;90.57;11.77;;;;;;;22.42;75.74;100568.78;10506489;28;20048;-59
2023/08/16 02:12:27;;;;;;;78.55;12.48;;;;;;;22.37;76.33;100566.75;10505161;28;21035;-60
2023/08/16 02:17:29;;;;;;;112.70;13.23;;;;;;;22.41;76.06;100564.38;10506642;28;20505;-59
2023/08/16 02:22:30;;;;;;;87.75;12.55;;;;;;;22.46;76.20;100569.94;10512444;28;20052;-59
2023/08/16 02:27:43;;;;;;;98.97;11.13;;;;;;;22.52;75.70;100575.22;10501024;28;20043;-59
2023/08/16 02:32:44;;;;;;;113.18;11.45;;;;;;;22.53;75.90;100571.44;10504917;28;20047;-59
2023/08/16 02:37:46;;;;;;;104.65;12.18;;;;;;;22.55;76.25;100565.69;10505611;28;20055;-59
2023/08/16 02:42:49;;;;;;;120.75;12.07;;;;;;;22.52;76.19;100567.00;10502853;28;20048;-59
2023/08/16 02:47:50;;;;;;;98.22;11.73;;;;;;;22.54;76.35;100564.03;10505543;28;20048;-59
2023/08/16 02:52:54;;;;;;;112.60;10.68;;;;;;;22.50;76.19;100565.63;10504141;28;20494;-59
2023/08/16 02:57:55;;;;;;;109.28;9.88;;;;;;;22.39;76.39;100561.88;10499122;28;20044;-59
2023/08/16 03:02:57;;;;;;;100.50;9.90;;;;;;;22.17;76.93;100567.22;10500341;28;20041;-59
2023/08/16 03:07:58;;;;;;;132.95;10.20;;;;;;;22.13;76.74;100555.13;10503989;28;20045;-59
2023/08/16 03:13:00;;;;;;;127.22;10.35;;;;;;;22.08;76.74;100560.53;10498009;28;20071;-59
2023/08/16 03:18:02;;;;;;;114.45;11.20;;;;;;;22.06;76.79;100559.91;10503961;28;20424;-59
2023/08/16 03:23:04;;;;;;;91.95;10.10;;;;;;;22.06;76.92;100559.91;10503976;28;20040;-59
2023/08/16 03:28:05;;;;;;;93.00;9.10;;;;;;;22.05;76.63;100553.59;10500953;28;20053;-59
2023/08/16 03:33:06;;;;;;;116.20;8.60;;;;;;;22.03;76.96;100558.50;10511162;28;20084;-59
2023/08/16 03:38:08;;;;;;;102.88;9.35;;;;;;;22.01;76.96;100557.91;10502533;28;20044;-59
2023/08/16 03:43:10;;;;;;;98.47;9.38;;;;;;;22.03;77.36;100572.19;10504084;28;20072;-59
2023/08/16 03:48:11;;;;;;;88.90;10.30;;;;;;;22.03;77.29;100565.91;10503667;28;20463;-59
2023/08/16 03:53:13;;;;;;;82.47;9.55;;;;;;;22.11;77.15;100570.97;10497643;28;20047;-59
2023/08/16 03:58:14;;;;;;;106.13;9.55;;;;;;;22.11;77.10;100577.25;10492395;28;20473;-59
2023/08/16 04:03:16;;;;;;;109.47;9.25;;;;;;;22.08;77.29;100583.25;10500355;28;20689;-59
2023/08/16 04:08:18;;;;;;;83.05;8.20;;;;;;;22.08;77.29;100588.72;10497266;28;20060;-59
2023/08/16 04:13:19;;;;;;;94.85;7.07;;;;;;;22.10;77.26;100583.81;10497028;28;20499;-60
2023/08/16 04:18:20;;;;;;;102.40;8.65;;;;;;;22.12;77.41;100578.94;10500722;28;20040;-60
2023/08/16 04:23:23;;;;;;;95.03;9.13;;;;;;;22.23;77.08;100573.63;10502146;28;20040;-60
2023/08/16 04:28:25;;;;;;;90.82;9.32;;;;;;;22.25;77.15;100583.28;10498673;28;20447;-60
2023/08/16 04:33:27;;;;;;;87.20;8.77;;;;;;;22.25;77.18;100577.81;10505215;28;20626;-60
2023/08/16 04:38:30;;;;;;;74.63;8.57;;;;;;;22.25;77.46;100580.53;10505637;28;20544;-60
2023/08/16 04:43:31;;;;;;;58.53;9.02;;;;;;;22.24;77.21;100586.25;10496637;28;20048;-60
2023/08/16 04:48:33;;;;;;;50.30;6.88;;;;;;;22.17;77.33;100578.19;10504449;28;20036;-60
2023/08/16 04:53:34;;;;;;;47.13;7.93;;;;;;;22.20;76.70;100588.66;10501275;28;20052;-60
2023/08/16 04:58:35;;;;;;;39.22;7.07;;;;;;;22.29;76.97;100591.84;10504356;28;20074;-60
2023/08/16 05:03:37;;;;;;;36.08;6.22;;;;;;;22.32;76.95;100605.06;10505703;28;20049;-60
2023/08/16 05:08:38;;;;;;;39.45;6.25;;;;;;;22.23;77.80;100614.69;10505300;28;20048;-60
2023/08/16 05:13:40;;;;;;;31.23;6.03;;;;;;;22.09;77.22;100627.88;10496324;28;20454;-60
2023/08/16 05:18:41;;;;;;;36.25;6.38;;;;;;;22.04;77.20;100630.50;10494963;28;20500;-60
2023/08/16 05:23:42;;;;;;;40.95;7.25;;;;;;;22.23;76.85;100628.41;10496900;28;20044;-60
2023/08/16 05:28:44;;;;;;;30.98;6.93;;;;;;;22.33;76.81;100621.25;10498367;28;20067;-60
2023/08/16 05:33:45;;;;;;;24.70;6.15;;;;;;;22.55;76.43;100632.28;10511788;27;20033;-60
2023/08/16 05:38:47;;;;;;;26.30;6.22;;;;;;;22.70;76.30;100637.19;10504866;28;20048;-60
2023/08/16 05:43:48;;;;;;;32.47;6.22;;;;;;;22.77;76.56;100623.31;10506566;28;20148;-60
2023/08/16 05:48:50;;;;;;;29.67;6.97;;;;;;;22.92;75.83;100611.75;10508940;28;20044;-60
2023/08/16 05:53:51;;;;;;;21.77;5.30;;;;;;;23.00;75.95;100608.56;10505270;28;20127;-60
2023/08/16 05:58:52;;;;;;;16.42;5.60;;;;;;;22.99;76.10;100626.13;10502453;28;20670;-60
2023/08/16 06:03:54;;;;;;;20.55;5.25;;;;;;;22.97;76.20;100625.53;10515272;28;20076;-60
2023/08/16 06:08:55;;;;;;;15.48;4.20;;;;;;;22.93;76.03;100632.59;10505463;28;20494;-60
2023/08/16 06:13:58;;;;;;;14.75;4.70;;;;;;;23.04;75.89;100620.72;10507796;28;20051;-60
2023/08/16 06:18:59;;;;;;;15.50;4.05;;;;;;;23.13;75.08;100621.13;10500544;28;20052;-60
2023/08/16 06:24:02;;;;;;;15.40;4.18;;;;;;;23.17;75.38;100601.16;10507334;28;20582;-60
2023/08/16 06:29:03;;;;;;;13.65;3.83;;;;;;;23.21;75.39;100608.91;10503904;28;20538;-60
2023/08/16 06:34:06;;;;;;;13.13;4.50;;;;;;;23.34;75.01;100609.34;10501482;28;20049;-60
2023/08/16 06:39:07;;;;;;;9.10;3.55;;;;;;;23.42;74.97;100596.25;10506307;28;20127;-60
2023/08/16 06:44:09;;;;;;;10.27;3.92;;;;;;;23.41;74.74;100586.38;10498755;28;20048;-60
2023/08/16 06:49:10;;;;;;;14.32;4.13;;;;;;;23.45;74.80;100568.31;10505321;28;20089;-60
2023/08/16 06:54:12;;;;;;;10.93;4.00;;;;;;;23.29;74.64;100576.34;10507927;28;20052;-60
2023/08/16 06:59:14;;;;;;;8.27;3.00;;;;;;;23.37;74.58;100594.28;10504675;28;20043;-61
2023/08/16 07:04:15;;;;;;;7.10;2.83;;;;;;;23.45;74.41;100598.50;10500801;28;20051;-60
2023/08/16 07:09:17;;;;;;;8.65;3.08;;;;;;;23.49;73.78;100608.69;10503219;28;20044;-60
2023/08/16 07:14:18;;;;;;;6.55;3.05;;;;;;;23.52;73.89;100608.19;10506003;28;20062;-60
2023/08/16 07:19:20;;;;;;;5.22;2.88;;;;;;;23.61;73.85;100605.00;10504812;28;20039;-60
2023/08/16 07:24:23;;;;;;;4.97;2.80;;;;;;;23.84;73.48;100609.41;10500763;28;20044;-60
2023/08/16 07:29:24;;;;;;;6.32;2.45;;;;;;;24.00;72.83;100622.22;10501678;28;20662;-60
2023/08/16 07:34:25;;;;;;;4.72;2.83;;;;;;;24.09;72.87;100630.81;10506924;28;20048;-60
2023/08/16 07:39:31;;;;;;;4.30;2.85;;;;;;;24.30;72.37;100637.34;10506383;28;20059;-59
2023/08/16 07:44:33;;;;;;;5.18;2.92;;;;;;;24.28;72.39;100650.50;10500727;28;20050;-59
2023/08/16 07:49:35;;;;;;;4.70;2.60;;;;;;;24.44;72.01;100655.03;10504670;28;20039;-59
2023/08/16 07:54:36;;;;;;;6.18;3.20;;;;;;;24.64;71.01;100665.41;10502281;28;20040;-60
2023/08/16 07:59:41;;;;;;;7.85;4.45;;;;;;;24.76;70.66;100679.00;10500250;28;20044;-60
2023/08/16 08:04:44;;;;;;;8.38;3.97;;;;;;;24.81;70.06;100672.72;10506492;28;20267;-60
2023/08/16 08:09:46;;;;;;;7.97;4.13;;;;;;;24.95;70.32;100668.41;10500918;28;20114;-60
2023/08/16 08:14:47;;;;;;;6.25;3.40;;;;;;;25.06;69.65;100672.91;10501991;28;20507;-61
2023/08/16 08:19:49;;;;;;;4.43;3.20;;;;;;;25.29;69.27;100673.63;10498054;28;20051;-61
2023/08/16 08:24:50;;;;;;;3.45;3.05;;;;;;;25.42;69.16;100670.41;10501880;28;20085;-60
2023/08/16 08:29:51;;;;;;;3.70;2.03;;;;;;;25.45;68.45;100674.53;10496558;28;20048;-60
2023/08/16 08:34:53;;;;;;;2.97;2.10;;;;;;;25.53;68.85;100674.88;10496652;28;20501;-60
2023/08/16 08:39:54;;;;;;;2.92;1.77;;;;;;;25.81;68.12;100672.78;10499738;28;20067;-60
2023/08/16 08:44:57;;;;;;;3.53;2.40;;;;;;;25.92;67.53;100673.66;10498666;28;20052;-60
2023/08/16 08:50:02;;;;;;;3.55;1.88;;;;;;;26.10;67.32;100677.84;10493677;28;20041;-60
2023/08/16 08:55:03;;;;;;;3.38;2.47;;;;;;;26.17;66.31;100683.94;10499943;28;20044;-60
2023/08/16 09:00:06;;;;;;;4.30;3.03;;;;;;;26.06;66.45;100677.56;10497474;28;20051;-60
2023/08/16 09:05:09;;;;;;;3.40;2.45;;;;;;;26.06;66.43;100688.56;10511018;28;20062;-60
2023/08/16 09:10:13;;;;;;;4.38;2.63;;;;;;;26.20;65.85;100688.88;10507783;28;20044;-60
2023/08/16 09:15:14;;;;;;;3.17;2.28;;;;;;;26.30;65.59;100666.88;10500632;28;20044;-60
2023/08/16 09:20:16;;;;;;;2.53;1.80;;;;;;;26.34;65.52;100672.66;10501280;28;20070;-61
2023/08/16 09:25:17;;;;;;;3.72;2.00;;;;;;;26.50;65.24;100671.59;10501216;28;20427;-60
2023/08/16 09:30:18;;;;;;;1.85;1.65;;;;;;;26.78;64.85;100668.56;10501168;28;20051;-59
2023/08/16 09:35:27;;;;;;;2.58;1.80;;;;;;;27.16;63.85;100666.31;10504407;28;20048;-59
2023/08/16 09:40:29;;;;;;;3.00;1.98;;;;;;;27.31;63.59;100655.25;10502407;28;20048;-59
2023/08/16 09:45:34;;;;;;;2.83;1.83;;;;;;;27.45;63.23;100650.00;10499887;28;20492;-59
2023/08/16 09:50:36;;;;;;;2.83;1.10;;;;;;;27.57;62.94;100663.44;10502651;28;20032;-59
2023/08/16 09:55:55;;;;;;;4.25;2.00;;;;;;;27.68;62.24;100665.88;10505631;28;20052;-58
2023/08/16 10:00:58;;;;;;;3.03;1.40;;;;;;;28.06;61.12;100658.00;10499605;28;20056;-59
2023/08/16 10:06:00;;;;;;;2.55;1.55;;;;;;;28.29;60.60;100648.16;10503332;28;20455;-64
2023/08/16 10:11:01;;;;;;;3.22;1.52;;;;;;;28.45;60.43;100648.88;10507939;28;20036;-64
2023/08/16 10:16:03;;;;;;;3.45;1.15;;;;;;;28.53;60.36;100643.88;10503333;28;20051;-63
2023/08/16 10:21:07;;;;;;;2.80;1.30;;;;;;;28.64;59.79;100629.66;10504593;28;20038;-64
2023/08/16 10:26:13;;;;;;;3.83;1.92;;;;;;;28.48;59.77;100625.34;10502028;28;20059;-62
2023/08/16 10:31:20;;;;;;;2.45;1.70;;;;;;;28.87;58.79;100635.53;10504858;28;20040;-62
2023/08/16 10:36:22;;;;;;;4.57;1.90;;;;;;;28.98;57.48;100626.00;10505920;28;20051;-64
2023/08/16 10:41:24;;;;;;;2.10;1.35;;;;;;;28.63;58.46;100628.03;10497673;28;20070;-62
2023/08/16 10:46:28;;;;;;;4.13;1.55;;;;;;;29.19;57.03;100626.66;10495074;28;20518;-63
2023/08/16 10:51:30;;;;;;;2.88;1.52;;;;;;;29.56;56.28;100621.50;10496218;28;20067;-63
2023/08/16 10:56:44;;;;;;;4.28;1.45;;;;;;;29.63;55.84;100617.25;10504418;28;20047;-63
2023/08/16 11:01:53;;;;;;;1.85;1.13;;;;;;;29.54;55.91;100621.78;10499298;28;20140;-63
2023/08/16 11:06:55;;;;;;;4.70;1.20;;;;;;;29.97;55.91;100619.00;10509908;28;20052;-62
2023/08/16 11:12:06;;;;;;;1.88;1.17;;;;;;;30.37;54.66;100621.47;10503503;28;20098;-63
2023/08/16 11:17:07;;;;;;;2.08;1.25;;;;;;;30.51;53.87;100622.38;10500282;28;20036;-64
2023/08/16 11:22:10;;;;;;;2.85;1.30;;;;;;;30.78;53.52;100601.34;10504513;28;20044;-65
2023/08/16 11:27:19;;;;;;;1.85;1.05;;;;;;;30.98;52.15;100600.19;10493926;28;20066;-64
2023/08/16 11:32:49;;;;;;;1.38;1.00;;;;;;;30.76;52.54;100600.84;10503852;28;20091;-65
2023/08/16 11:37:51;;;;;;;4.15;1.70;;;;;;;31.00;52.39;100597.91;10489433;28;20162;-64
2023/08/16 11:42:53;;;;;;;1.60;1.02;;;;;;;30.98;51.71;100592.66;10498985;28;20051;-64
2023/08/16 11:47:54;;;;;;;3.97;1.17;;;;;;;30.89;51.82;100585.38;10500313;28;20060;-64
2023/08/16 11:53:02;;;;;;;4.47;1.27;;;;;;;31.07;52.36;100580.84;10497167;28;20047;-66
2023/08/16 11:58:06;;;;;;;1.88;1.00;;;;;;;31.33;50.91;100573.63;10505253;28;20048;-64
2023/08/16 12:03:11;;;;;;;4.35;1.02;;;;;;;31.31;51.16;100575.09;10501241;28;20087;-61
2023/08/16 12:08:21;;;;;;;2.30;1.30;;;;;;;31.50;50.60;100566.63;10513312;28;20044;-67
2023/08/16 12:13:23;;;;;;;2.60;1.20;;;;;;;31.61;50.31;100571.66;10509926;28;20175;-67
2023/08/16 12:18:25;;;;;;;1.48;0.98;;;;;;;31.67;49.27;100566.00;10504492;28;20402;-67
2023/08/16 12:23:26;;;;;;;1.30;0.90;;;;;;;31.77;49.74;100561.00;10502192;28;20074;-65
2023/08/16 12:28:28;;;;;;;1.60;0.90;;;;;;;31.93;48.72;100555.09;10503086;28;20056;-65
2023/08/16 12:33:29;;;;;;;3.25;0.85;;;;;;;32.15;48.18;100544.00;10503181;28;20045;-66
2023/08/16 12:38:31;;;;;;;3.17;1.00;;;;;;;32.15;48.51;100537.59;10511150;28;20129;-66
2023/08/16 12:43:32;;;;;;;2.05;1.10;;;;;;;32.24;48.33;100538.50;10510470;28;20052;-66
2023/08/16 12:48:41;;;;;;;1.60;0.70;;;;;;;32.39;47.79;100526.16;10507498;28;20484;-65
2023/08/16 12:53:43;;;;;;;1.30;0.70;;;;;;;32.59;47.08;100522.03;10511164;28;20047;-67
2023/08/16 12:58:45;;;;;;;2.15;0.90;;;;;;;32.70;47.58;100517.81;10508670;28;20084;-65
2023/08/16 13:03:58;;;;;;;1.23;0.70;;;;;;;32.70;47.23;100517.81;10507458;28;20063;-66
2023/08/16 13:09:02;;;;;;;3.15;0.90;;;;;;;32.53;47.95;100512.97;10508885;28;20062;-67
2023/08/16 13:14:09;;;;;;;1.75;0.90;;;;;;;32.58;47.61;100506.44;10505685;28;20056;-65
2023/08/16 13:19:11;;;;;;;3.78;0.90;;;;;;;32.57;46.53;100510.41;10508199;28;20048;-67
2023/08/16 13:24:25;;;;;;;2.13;0.80;;;;;;;32.73;46.11;100502.44;10513508;28;20045;-66
2023/08/16 13:29:30;;;;;;;2.28;1.00;;;;;;;33.12;45.86;100503.56;10507138;28;20648;-67
2023/08/16 13:34:52;;;;;;;1.58;0.70;;;;;;;33.24;44.87;100489.81;10504904;28;20072;-67
2023/08/16 13:39:56;;;;;;;4.68;0.80;;;;;;;33.68;45.55;100493.47;10502569;28;20049;-67
2023/08/16 13:45:00;;;;;;;2.17;0.60;;;;;;;33.94;44.29;100487.03;10510002;28;20048;-65
2023/08/16 13:50:05;;;;;;;1.17;0.63;;;;;;;34.17;44.34;100482.91;10517729;28;20115;-64
2023/08/16 13:55:07;;;;;;;2.60;0.98;;;;;;;34.01;43.45;100483.75;10504454;28;20044;-66
2023/08/16 14:00:09;;;;;;;1.55;0.80;;;;;;;33.47;45.09;100489.66;10505227;28;20041;-65
2023/08/16 14:05:11;;;;;;;1.20;1.05;;;;;;;33.18;44.77;100479.97;10513420;28;20076;-66
2023/08/16 14:10:13;;;;;;;2.05;0.90;;;;;;;32.94;45.05;100489.56;10505907;28;20496;-65
2023/08/16 14:15:14;;;;;;;2.85;1.02;;;;;;;32.70;45.47;100483.56;10508986;28;20508;-63
2023/08/16 14:20:16;;;;;;;1.67;0.80;;;;;;;32.33;45.61;100483.72;10503667;28;20040;-67
2023/08/16 14:25:17;;;;;;;6.00;1.00;;;;;;;32.01;46.19;100476.47;10501648;28;20131;-65
2023/08/16 14:30:21;;;;;;;1.42;0.85;;;;;;;31.77;46.88;100476.78;10506950;28;20040;-62
2023/08/16 14:35:23;;;;;;;4.30;1.00;;;;;;;31.54;46.92;100478.75;10510890;28;20067;-64
2023/08/16 14:40:24;;;;;;;2.08;0.90;;;;;;;31.42;47.41;100457.84;10505743;28;20052;-64
2023/08/16 14:45:31;;;;;;;2.22;0.80;;;;;;;31.38;47.41;100456.00;10512396;28;20040;-65
2023/08/16 14:50:33;;;;;;;4.32;0.80;;;;;;;31.47;47.44;100451.38;10511391;28;20043;-66
2023/08/16 14:55:34;;;;;;;3.03;1.00;;;;;;;31.55;47.40;100450.63;10508249;28;20407;-65
2023/08/16 15:00:36;;;;;;;1.17;0.75;;;;;;;31.89;46.82;100452.00;10500533;28;20964;-66
2023/08/16 15:05:38;;;;;;;4.05;1.80;;;;;;;32.17;46.43;100463.00;10501740;28;20058;-65
2023/08/16 15:10:46;;;;;;;3.70;0.90;;;;;;;32.06;46.95;100459.69;10499555;28;20075;-65
2023/08/16 15:15:48;;;;;;;2.45;0.65;;;;;;;31.73;47.88;100447.97;10511329;28;20043;-66
2023/08/16 15:20:50;;;;;;;1.67;0.80;;;;;;;32.17;46.96;100440.75;10499167;28;20071;-64
2023/08/16 15:25:52;;;;;;;1.95;1.02;;;;;;;32.08;47.26;100437.13;10522482;28;20040;-65
2023/08/16 15:30:56;;;;;;;2.47;0.88;;;;;;;31.79;47.89;100435.59;10516270;28;20353;-66
2023/08/16 15:35:58;;;;;;;1.77;1.00;;;;;;;32.06;47.25;100434.66;10534300;28;20041;-66
2023/08/16 15:40:59;;;;;;;1.50;0.90;;;;;;;32.26;47.20;100421.31;10534418;28;20075;-65
2023/08/16 15:46:00;;;;;;;3.78;1.10;;;;;;;32.24;47.60;100423.59;10516453;28;20279;-65
2023/08/16 15:51:03;;;;;;;3.55;0.90;;;;;;;32.01;47.88;100423.63;10493020;28;20762;-66
2023/08/16 15:56:06;;;;;;;2.85;1.00;;;;;;;32.05;48.00;100421.06;10505921;28;20078;-66
2023/08/16 16:01:07;;;;;;;3.72;1.00;;;;;;;31.80;48.27;100426.94;10506202;28;20612;-65
2023/08/16 16:06:09;;;;;;;3.33;0.98;;;;;;;31.94;48.18;100412.13;10516542;28;20067;-63
2023/08/16 16:11:10;;;;;;;2.95;1.00;;;;;;;32.07;48.12;100407.63;10513813;28;20056;-66
2023/08/16 16:16:12;;;;;;;1.40;0.85;;;;;;;32.33;48.12;100402.22;10511298;28;20641;-66
2023/08/16 16:21:13;;;;;;;4.68;1.00;;;;;;;32.64;47.08;100387.44;10512215;28;20443;-66
2023/08/16 16:26:15;;;;;;;4.25;1.27;;;;;;;32.87;46.54;100388.94;10504443;28;20467;-66
2023/08/16 16:31:17;;;;;;;1.83;1.20;;;;;;;33.06;45.50;100382.25;10497224;28;20048;-66
2023/08/16 16:36:20;;;;;;;3.67;1.40;;;;;;;33.08;45.04;100372.44;10505434;28;20056;-66
2023/08/16 16:41:22;;;;;;;4.50;0.80;;;;;;;33.06;45.18;100371.94;10508490;28;20051;-65
2023/08/16 16:46:23;;;;;;;3.10;0.93;;;;;;;32.96;45.40;100369.44;10512433;28;20040;-64
2023/08/16 16:51:25;;;;;;;3.13;0.80;;;;;;;32.67;45.75;100370.91;10511923;28;20040;-66
2023/08/16 16:56:26;;;;;;;3.80;0.90;;;;;;;32.44;46.10;100384.06;10499095;28;20050;-66
2023/08/16 17:01:28;;;;;;;2.97;0.88;;;;;;;31.95;47.11;100378.47;10510319;28;20036;-66
2023/08/16 17:06:29;;;;;;;4.13;0.95;;;;;;;31.80;47.35;100373.28;10503229;28;20089;-65
2023/08/16 17:11:30;;;;;;;1.50;0.88;;;;;;;31.54;47.68;100373.97;10499067;28;20366;-65
2023/08/16 17:16:32;;;;;;;1.63;0.60;;;;;;;31.15;48.36;100367.09;10496990;28;20036;-66
2023/08/16 17:21:33;;;;;;;3.25;1.35;;;;;;;30.76;49.40;100360.16;10489510;28;20125;-66
2023/08/16 17:26:35;;;;;;;2.65;1.00;;;;;;;30.52;50.02;100349.31;10526218;28;20040;-65
2023/08/16 17:31:36;;;;;;;1.63;1.10;;;;;;;30.28;50.28;100351.47;10521949;28;20050;-65
2023/08/16 17:36:38;;;;;;;2.83;1.10;;;;;;;30.04;50.79;100349.72;10520692;28;20048;-65
2023/08/16 17:41:40;;;;;;;1.90;1.00;;;;;;;29.85;51.35;100339.50;10508202;28;20045;-65
2023/08/16 17:46:43;;;;;;;2.58;1.25;;;;;;;29.59;51.88;100344.66;10507379;28;20059;-66
2023/08/16 17:51:46;;;;;;;0.93;0.90;;;;;;;29.39;52.56;100354.16;10501805;28;20546;-66
2023/08/16 17:56:48;;;;;;;1.40;1.23;;;;;;;29.19;53.84;100357.25;10505767;28;20040;-67
2023/08/16 18:01:51;;;;;;;2.60;1.17;;;;;;;29.08;54.36;100351.00;10506771;28;20499;-67
2023/08/16 18:06:53;;;;;;;2.92;1.20;;;;;;;28.87;54.89;100334.72;10505932;28;20131;-66
2023/08/16 18:11:56;;;;;;;3.47;1.50;;;;;;;28.73;55.24;100341.28;10502031;28;20056;-66
2023/08/16 18:16:58;;;;;;;3.20;1.40;;;;;;;28.65;55.93;100331.69;10500236;28;20079;-64
2023/08/16 18:22:00;;;;;;;1.70;1.40;;;;;;;28.46;56.49;100306.78;10497643;28;20040;-64
2023/08/16 18:27:01;;;;;;;1.73;1.40;;;;;;;28.35;58.01;100308.03;10500697;28;20051;-63
2023/08/16 18:32:03;;;;;;;2.72;1.60;;;;;;;28.18;58.39;100305.72;10499213;28;20128;-63
2023/08/16 18:37:04;;;;;;;1.83;1.35;;;;;;;28.01;59.24;100300.69;10486330;28;20056;-63
2023/08/16 18:42:07;;;;;;;3.28;1.38;;;;;;;28.01;59.22;100297.94;10495723;28;20044;-63
2023/08/16 18:47:09;;;;;;;1.80;1.17;;;;;;;27.99;58.64;100320.31;10502545;28;20112;-63
2023/08/16 18:52:10;;;;;;;4.50;1.23;;;;;;;27.98;58.45;100342.72;10506749;28;20047;-63
2023/08/16 18:57:11;;;;;;;2.00;1.60;;;;;;;27.97;59.06;100371.47;10500133;28;20392;-65
2023/08/16 19:02:13;;;;;;;1.88;1.20;;;;;;;27.61;59.53;100432.56;10505203;28;20040;-65
2023/08/16 19:07:14;;;;;;;3.13;2.08;;;;;;;25.68;66.64;100544.66;10502745;28;20059;-65
2023/08/16 19:12:16;;;;;;;7.32;0.52;;;;;;;23.40;70.95;100680.75;10505682;28;20048;-63
2023/08/16 19:17:17;;;;;;;1.08;0.47;;;;;;;21.63;74.02;100736.44;10503221;28;20506;-62
2023/08/16 19:22:19;;;;;;;0.00;0.00;;;;;;;20.73;75.94;100672.78;10508641;28;20047;-65
2023/08/16 19:27:20;;;;;;;0.00;0.00;;;;;;;20.21;76.33;100597.72;10508804;28;20063;-65
2023/08/16 19:32:22;;;;;;;0.00;0.00;;;;;;;20.13;76.44;100595.34;10489716;28;20388;-67
2023/08/16 19:37:23;;;;;;;0.00;0.00;;;;;;;20.23;76.30;100673.13;10502297;28;21110;-65
2023/08/16 19:42:25;;;;;;;0.00;0.00;;;;;;;20.36;75.76;100635.53;10497735;28;20040;-65
2023/08/16 19:47:26;;;;;;;0.00;0.00;;;;;;;20.69;75.30;100642.38;10506421;28;20047;-63
2023/08/16 19:52:28;;;;;;;0.00;0.00;;;;;;;20.89;75.10;100609.25;10507872;28;20029;-65
2023/08/16 19:57:30;;;;;;;0.00;0.00;;;;;;;20.96;75.51;100585.34;10501271;28;20062;-65
2023/08/16 20:02:31;;;;;;;0.00;0.00;;;;;;;20.74;76.59;100571.47;10501292;28;20495;-65
2023/08/16 20:07:33;;;;;;;0.00;0.00;;;;;;;20.66;77.17;100538.22;10498881;28;20046;-63
2023/08/16 20:12:34;;;;;;;0.00;0.00;;;;;;;20.47;77.64;100504.69;10498648;28;20052;-63
2023/08/16 20:17:39;;;;;;;0.00;0.00;;;;;;;20.33;78.21;100485.81;10513908;28;20113;-63
2023/08/16 20:22:42;;;;;;;0.00;0.00;;;;;;;20.32;78.15;100470.50;10515691;28;20040;-63
2023/08/16 20:27:44;;;;;;;0.00;0.00;;;;;;;20.27;78.83;100448.53;10511880;28;20048;-64
2023/08/16 20:32:45;;;;;;;0.00;0.00;;;;;;;20.24;78.45;100435.38;10512520;28;20044;-64
2023/08/16 20:37:47;;;;;;;0.00;0.00;;;;;;;20.26;78.90;100460.53;10513910;28;20614;-64
2023/08/16 20:42:48;;;;;;;0.00;0.00;;;;;;;20.18;79.42;100428.13;10516637;28;20055;-62
2023/08/16 20:47:50;;;;;;;0.00;0.00;;;;;;;20.27;79.42;100432.16;10514704;28;20044;-65
2023/08/16 20:52:51;;;;;;;0.00;0.00;;;;;;;20.48;78.84;100449.84;10524038;28;20036;-61
2023/08/16 20:57:52;;;;;;;0.00;0.00;;;;;;;20.64;78.83;100478.34;10513052;28;20048;-61
2023/08/16 21:02:54;;;;;;;0.00;0.00;;;;;;;20.37;79.37;100511.56;10522303;28;20386;-64
2023/08/16 21:07:56;;;;;;;0.00;0.00;;;;;;;20.32;79.98;100548.84;10536408;28;20060;-64
2023/08/16 21:12:57;;;;;;;0.00;0.00;;;;;;;20.31;79.92;100530.81;10525291;28;20130;-66
2023/08/16 21:17:58;;;;;;;0.00;0.00;;;;;;;20.35;80.26;100470.03;10511517;28;20056;-63
2023/08/16 21:23:01;;;;;;;0.00;0.00;;;;;;;20.56;79.55;100498.63;10504688;28;20797;-62
2023/08/16 21:28:03;;;;;;;0.00;0.00;;;;;;;20.64;80.25;100507.59;10509584;28;20058;-61
2023/08/16 21:33:04;;;;;;;0.00;0.00;;;;;;;20.77;79.51;100499.97;10508989;28;20045;-63
2023/08/16 21:38:06;;;;;;;0.00;0.00;;;;;;;20.88;79.52;100479.13;10505584;28;20051;-61
2023/08/16 21:43:07;;;;;;;0.00;0.00;;;;;;;20.88;79.72;100516.56;10507471;28;20054;-62
2023/08/16 21:48:09;;;;;;;0.00;0.00;;;;;;;20.84;79.95;100568.13;10503016;28;20076;-62
2023/08/16 21:53:10;;;;;;;0.00;0.00;;;;;;;20.87;80.08;100548.50;10507611;28;20044;-63
2023/08/16 21:58:12;;;;;;;0.00;0.00;;;;;;;20.94;80.15;100546.50;10511352;28;20048;-63
2023/08/16 22:03:13;;;;;;;0.00;0.00;;;;;;;20.89;80.13;100499.09;10507142;28;20042;-64
2023/08/16 22:08:15;;;;;;;0.00;0.00;;;;;;;20.87;80.19;100536.75;10505799;28;20053;-65
2023/08/16 22:13:20;;;;;;;0.00;0.00;;;;;;;20.85;80.75;100552.56;10507634;28;20047;-62
2023/08/16 22:18:21;;;;;;;0.00;0.00;;;;;;;20.85;80.51;100537.00;10505751;28;20051;-61
2023/08/16 22:23:22;;;;;;;0.00;0.00;;;;;;;20.83;80.72;100516.44;10506506;28;20036;-62
2023/08/16 22:28:24;;;;;;;0.00;0.00;;;;;;;20.86;80.60;100513.25;10510236;28;20496;-60
2023/08/16 22:33:26;;;;;;;0.00;0.00;;;;;;;20.92;80.76;100504.09;10500200;28;20059;-61
2023/08/16 22:38:27;;;;;;;0.00;0.00;;;;;;;20.79;80.85;100513.38;10502566;28;20071;-61
2023/08/16 22:43:29;;;;;;;0.00;0.00;;;;;;;20.74;80.51;100505.06;10497762;28;20538;-61
2023/08/16 22:48:30;;;;;;;0.00;0.00;;;;;;;20.87;80.68;100502.06;10502799;28;20048;-61
2023/08/16 22:53:32;;;;;;;0.00;0.00;;;;;;;20.88;80.17;100511.09;10506181;28;20051;-61
2023/08/16 22:58:33;;;;;;;0.00;0.00;;;;;;;20.91;80.24;100505.16;10503097;28;20044;-62
2023/08/16 23:03:35;;;;;;;0.00;0.00;;;;;;;20.85;80.31;100492.44;10495673;28;20543;-63